Buffalo Ridge, South Dakota
Current Conditions -  °F | °C
As of 6:56 AM on Thursday 30 Oct 2014 (Local Time) from KFSD Reporting Station
Broken Clouds Broken Clouds  
Wind Chill: 37°   Ceiling: 9500
Heat Index: 43°   Visibility: 10mi
Dew Point: 34°   Wind: 10mph
Humidity: 71%   Direction: 310°NW
Pressure: 29.99"   Gusts: NA
Location:  43.66°N, 96.82°W
Report Text: KFSD 301156Z 31009KT 10SM BKN095 06/01 A2999 RMK AO2 SLP163 60000 T00610011 10083 20044 53007
Loading
Personal Weather Stations






























Interactive Weather Map
Tropical Storm Tracking
New forecast layout! Learn more

10-Day Weather Forecast

Advertisements
Track Severe Weather on mobile